createdAt,value
2023-02-06T00:02:54.968Z,93.28
2023-02-06T00:05:51.290Z,94.30
2023-02-06T00:11:27.997Z,94.15
2023-02-06T00:14:17.953Z,95.90
2023-02-06T00:17:02.174Z,102.93
2023-02-06T00:20:02.835Z,106.93
2023-02-06T00:23:04.168Z,89.70
2023-02-06T00:35:09.392Z,86.75
2023-02-06T00:41:23.086Z,75.22
2023-02-06T00:47:06.725Z,75.13
2023-02-06T00:50:01.119Z,68.88
2023-02-06T00:52:36.837Z,74.03
2023-02-06T00:55:29.120Z,77.47
2023-02-06T00:58:03.601Z,83.50
2023-02-06T01:00:51.477Z,84.45
2023-02-06T01:03:35.884Z,81.45
2023-02-06T01:09:30.569Z,79.40
2023-02-06T01:12:11.717Z,71.75
2023-02-06T01:14:49.288Z,84.78
2023-02-06T01:17:26.745Z,81.95
2023-02-06T01:20:20.118Z,89.38
2023-02-06T01:23:11.944Z,91.00
2023-02-06T01:29:22.796Z,92.18
2023-02-06T01:32:05.324Z,85.57
2023-02-06T01:38:31.983Z,83.07
2023-02-06T01:41:29.891Z,72.75
2023-02-06T01:44:17.570Z,88.07
2023-02-06T01:47:07.800Z,81.28
2023-02-06T01:50:01.049Z,91.75
2023-02-06T01:52:39.200Z,86.20
2023-02-06T01:55:45.609Z,83.40
2023-02-06T02:01:56.538Z,77.15
2023-02-06T02:04:34.243Z,78.55
2023-02-06T02:07:17.762Z,93.70
2023-02-06T02:09:56.403Z,76.25
2023-02-06T02:12:34.858Z,66.22
2023-02-06T02:15:16.982Z,91.97
2023-02-06T02:18:06.256Z,83.93
2023-02-06T02:21:04.441Z,93.27
2023-02-06T02:24:00.372Z,93.68
2023-02-06T02:27:23.984Z,98.85
2023-02-06T02:33:46.690Z,115.23
2023-02-06T02:36:59.092Z,115.68
2023-02-06T02:42:53.680Z,106.93
2023-02-06T02:48:42.151Z,96.13
2023-02-06T02:51:25.609Z,98.93
2023-02-06T02:54:06.046Z,117.13
2023-02-06T02:56:41.704Z,116.88
2023-02-06T03:02:25.616Z,98.20
2023-02-06T03:05:01.316Z,89.65
2023-02-06T03:07:56.484Z,91.68
2023-02-06T03:10:36.874Z,104.63
2023-02-06T03:13:28.392Z,111.05
2023-02-06T03:16:26.968Z,122.35
2023-02-06T03:19:06.498Z,101.30
2023-02-06T03:21:41.764Z,107.22
2023-02-06T03:24:23.369Z,138.67
2023-02-06T03:27:04.520Z,121.70
2023-02-06T03:29:39.929Z,124.03
2023-02-06T03:32:37.270Z,132.93
2023-02-06T03:35:19.223Z,127.88
2023-02-06T03:37:53.128Z,117.43
2023-02-06T03:40:32.272Z,93.53
2023-02-06T03:43:09.033Z,99.00
2023-02-06T03:45:49.475Z,120.23
2023-02-06T03:48:56.850Z,113.27
2023-02-06T03:51:52.445Z,129.88
2023-02-06T03:54:53.918Z,107.40
2023-02-06T03:57:32.952Z,129.98
2023-02-06T04:00:15.167Z,138.32
2023-02-06T04:02:51.692Z,115.78
2023-02-06T04:05:30.788Z,147.05
2023-02-06T04:08:12.535Z,135.70
2023-02-06T04:10:55.844Z,112.40
2023-02-06T04:13:38.527Z,113.25
2023-02-06T04:16:25.084Z,116.95
2023-02-06T04:19:01.159Z,109.10
2023-02-06T04:24:26.640Z,108.77
2023-02-06T04:27:05.176Z,93.70
2023-02-06T04:29:59.702Z,102.40
2023-02-06T04:32:59.813Z,104.53
2023-02-06T04:36:00.994Z,83.95
2023-02-06T04:38:57.465Z,88.00
2023-02-06T04:42:22.123Z,86.10
2023-02-06T04:45:20.435Z,103.00
2023-02-06T04:48:08.861Z,96.72
2023-02-06T04:50:48.634Z,89.45
2023-02-06T04:53:33.765Z,115.38
2023-02-06T04:56:21.576Z,107.43
2023-02-06T04:59:12.900Z,110.82
2023-02-06T05:04:57.845Z,94.17
2023-02-06T05:07:43.361Z,75.47
2023-02-06T05:10:31.340Z,97.68
2023-02-06T05:13:10.443Z,105.38
2023-02-06T05:15:47.324Z,96.60
2023-02-06T05:18:33.061Z,93.15
2023-02-06T05:21:22.406Z,123.33
2023-02-06T05:24:22.091Z,138.75
2023-02-06T05:27:03.829Z,141.75
2023-02-06T05:29:39.896Z,143.07
2023-02-06T05:35:27.485Z,117.72
2023-02-06T05:38:05.387Z,160.02
2023-02-06T05:40:40.157Z,141.85
2023-02-06T05:43:22.583Z,153.32
2023-02-06T05:46:01.871Z,120.35
2023-02-06T05:48:38.779Z,103.53
2023-02-06T05:51:17.144Z,103.10
2023-02-06T05:54:01.701Z,89.20
2023-02-06T05:56:41.161Z,89.68
2023-02-06T05:59:19.902Z,100.47
2023-02-06T06:01:55.632Z,93.07
2023-02-06T06:04:38.823Z,98.05
2023-02-06T06:07:20.881Z,101.43
2023-02-06T06:09:58.118Z,84.65
2023-02-06T06:12:54.364Z,90.47
2023-02-06T06:15:57.335Z,84.13
2023-02-06T06:18:33.216Z,94.30
2023-02-06T06:21:08.961Z,86.13
2023-02-06T06:23:54.518Z,84.88
2023-02-06T06:26:32.707Z,109.32
2023-02-06T06:29:07.850Z,99.90
2023-02-06T06:31:44.885Z,93.03
2023-02-06T06:34:20.863Z,100.80
2023-02-06T06:36:59.799Z,324.90
2023-02-06T06:48:15.370Z,92.38
2023-02-06T06:57:01.724Z,103.82
2023-02-06T06:59:45.295Z,95.90
2023-02-06T07:02:22.862Z,97.47
2023-02-06T07:05:06.519Z,101.18
2023-02-06T07:07:42.817Z,96.75
2023-02-06T07:10:19.705Z,98.22
2023-02-06T07:13:03.899Z,124.35
2023-02-06T07:15:44.362Z,105.82
2023-02-06T07:18:23.066Z,116.32
2023-02-06T07:21:03.926Z,138.05
2023-02-06T07:23:41.615Z,122.45
2023-02-06T07:26:20.341Z,135.38
2023-02-06T07:28:58.656Z,131.87
2023-02-06T07:50:10.165Z,87.82
2023-02-06T07:52:56.341Z,247.80
2023-02-06T07:55:33.276Z,201.45
2023-02-06T08:01:01.064Z,92.50
2023-02-06T08:06:38.769Z,81.82
2023-02-06T08:27:46.697Z,71.80
2023-02-06T08:30:24.997Z,67.20
2023-02-06T08:33:04.049Z,74.65
2023-02-06T08:38:50.002Z,71.78
2023-02-06T08:41:37.124Z,73.90
2023-02-06T08:44:24.434Z,76.18
2023-02-06T08:47:20.252Z,74.57
2023-02-06T09:17:22.334Z,54.65
2023-02-06T09:26:16.614Z,60.97
2023-02-06T09:31:48.234Z,58.30
2023-02-06T09:34:43.584Z,60.65
2023-02-06T09:37:20.776Z,60.15
2023-02-06T09:42:59.015Z,57.87
2023-02-06T09:45:40.660Z,54.83
2023-02-06T09:48:21.266Z,50.78
2023-02-06T09:54:08.043Z,46.53
2023-02-06T09:56:45.838Z,46.22
2023-02-06T09:59:36.593Z,48.08
2023-02-06T10:02:30.084Z,48.60
2023-02-06T10:05:14.048Z,54.50
2023-02-06T10:08:03.492Z,44.45
2023-02-06T10:10:48.029Z,47.50
2023-02-06T10:13:27.886Z,40.37
2023-02-06T10:16:11.705Z,34.35
2023-02-06T10:18:50.995Z,36.40
2023-02-06T10:21:31.812Z,34.33
2023-02-06T10:24:14.332Z,27.65
2023-02-06T10:26:48.133Z,26.00
2023-02-06T10:29:42.699Z,24.83
2023-02-06T10:35:17.591Z,25.40
2023-02-06T10:38:37.039Z,21.23
2023-02-06T10:41:24.643Z,20.70
2023-02-06T10:44:06.857Z,20.60
2023-02-06T10:46:54.562Z,19.40
2023-02-06T10:49:37.524Z,15.52
2023-02-06T10:52:26.757Z,13.20
2023-02-06T10:55:10.483Z,15.67
2023-02-06T11:00:53.307Z,15.40
2023-02-06T11:06:40.326Z,18.85
2023-02-06T11:16:05.436Z,18.40
2023-02-06T11:31:48.514Z,24.60
2023-02-06T11:35:04.612Z,22.35
2023-02-06T11:43:49.051Z,14.57
2023-02-06T12:49:29.088Z,25.15
2023-02-06T13:04:55.929Z,22.38
2023-02-06T13:13:15.729Z,16.75
2023-02-06T13:38:26.198Z,12.50
2023-02-06T13:58:33.568Z,12.70
2023-02-06T14:01:37.148Z,13.50
2023-02-06T14:07:54.919Z,17.80
2023-02-06T14:14:06.721Z,22.85
2023-02-06T14:16:53.142Z,41.78
2023-02-06T14:28:59.242Z,29.25
2023-02-06T14:31:49.517Z,19.63
2023-02-06T14:37:30.184Z,48.03
2023-02-06T14:40:31.275Z,78.15
2023-02-06T14:43:19.934Z,49.60
2023-02-06T14:49:00.184Z,32.30
2023-02-06T14:51:44.389Z,21.25
2023-02-06T14:54:38.895Z,19.87
2023-02-06T15:03:44.501Z,25.73
2023-02-06T15:06:18.287Z,24.73
2023-02-06T15:09:04.475Z,23.15
2023-02-06T15:11:49.635Z,26.00
2023-02-06T15:14:36.457Z,20.70
2023-02-06T15:17:52.685Z,19.70
2023-02-06T15:20:31.292Z,20.85
2023-02-06T15:23:16.861Z,27.85
2023-02-06T15:26:09.498Z,19.80
2023-02-06T15:28:47.270Z,22.95
2023-02-06T15:31:44.660Z,20.90
2023-02-06T15:34:40.571Z,22.00
2023-02-06T15:46:16.044Z,24.73
2023-02-06T15:49:03.343Z,23.80
2023-02-06T15:55:02.407Z,25.10
2023-02-06T15:57:43.456Z,22.38
2023-02-06T16:03:42.916Z,26.87
2023-02-06T16:06:29.087Z,23.20
2023-02-06T16:09:25.423Z,34.72
2023-02-06T16:12:17.244Z,162.85
2023-02-06T16:15:02.502Z,161.00
2023-02-06T16:17:49.571Z,82.05
2023-02-06T16:20:37.580Z,57.60
2023-02-06T16:26:31.191Z,42.25
2023-02-06T16:29:46.492Z,38.65
2023-02-06T16:32:51.125Z,26.52
2023-02-06T16:35:31.038Z,31.77
2023-02-06T16:38:25.898Z,34.55
2023-02-06T16:41:11.452Z,27.77
2023-02-06T16:49:58.161Z,28.90
2023-02-06T16:52:56.710Z,40.97
2023-02-06T16:58:41.251Z,96.07
2023-02-06T17:05:03.430Z,45.45
2023-02-06T17:07:47.256Z,54.53
2023-02-06T17:10:38.441Z,96.50
2023-02-06T17:13:27.259Z,72.05
2023-02-06T17:16:20.033Z,93.07
2023-02-06T17:46:57.143Z,67.40
2023-02-06T17:55:53.050Z,57.15
2023-02-06T18:01:10.551Z,52.55
2023-02-06T18:03:49.345Z,53.93
2023-02-06T18:06:23.982Z,61.33
2023-02-06T18:09:14.129Z,55.30
2023-02-06T18:14:44.608Z,51.93
2023-02-06T18:17:33.484Z,52.55
2023-02-06T18:23:27.581Z,52.25
2023-02-06T18:29:21.766Z,66.55
2023-02-06T18:32:06.518Z,56.27
2023-02-06T18:34:42.285Z,62.67
2023-02-06T18:37:23.514Z,64.18
2023-02-06T18:40:01.325Z,57.67
2023-02-06T18:45:40.340Z,49.28
2023-02-06T18:54:10.717Z,63.28
2023-02-06T18:56:50.438Z,61.33
2023-02-06T18:59:28.112Z,102.95
2023-02-06T19:02:09.243Z,63.95
2023-02-06T19:04:48.163Z,74.40
2023-02-06T19:07:24.430Z,64.10
2023-02-06T19:10:02.534Z,70.70
2023-02-06T19:12:41.099Z,93.75
2023-02-06T19:15:19.892Z,73.40
2023-02-06T19:18:02.542Z,85.90
2023-02-06T19:20:40.547Z,80.57
2023-02-06T19:23:18.382Z,77.05
2023-02-06T19:25:56.060Z,79.90
2023-02-06T19:28:35.013Z,75.75
2023-02-06T19:31:16.246Z,83.25
2023-02-06T19:33:58.196Z,70.43
2023-02-06T19:36:33.522Z,90.20
2023-02-06T19:39:15.981Z,86.17
2023-02-06T19:41:54.944Z,82.63
2023-02-06T19:44:33.752Z,86.55
2023-02-06T19:47:14.095Z,92.80
2023-02-06T19:49:50.013Z,86.13
2023-02-06T19:52:32.769Z,76.45
2023-02-06T19:55:12.522Z,76.45
2023-02-06T19:57:52.119Z,85.13
2023-02-06T20:00:31.051Z,78.05
2023-02-06T20:03:10.300Z,94.93
2023-02-06T20:05:46.371Z,107.95
2023-02-06T20:08:25.166Z,119.97
2023-02-06T20:11:07.818Z,122.00
2023-02-06T20:13:58.481Z,119.35
2023-02-06T20:16:34.878Z,136.73
2023-02-06T20:19:20.000Z,124.25
2023-02-06T20:22:14.810Z,137.88
2023-02-06T20:24:56.248Z,126.00
2023-02-06T21:14:16.292Z,127.55
2023-02-06T22:54:37.804Z,130.75
2023-02-06T22:57:21.621Z,122.68
2023-02-06T23:06:09.463Z,130.10
